Time;durP1;ratioP1;P1;durP2;ratioP2;P2;SDS_P1;SDS_P2;PMS_P1;PMS_P2;Temp;Humidity;BMP_temperature;BMP_pressure;BME280_temperature;BME280_humidity;BME280_pressure;Samples;Min_cycle;Max_cycle;Signal;HPM_P1;HPM_P2
2023/10/27 00:00:37;;;;;;;60.17;27.83;;;9.70;99.90;;;;;;4924679;28;20059;-78
2023/10/27 00:03:03;;;;;;;53.53;26.10;;;9.30;99.90;;;;;;4920950;28;20066;-78
2023/10/27 00:05:30;;;;;;;53.97;25.33;;;9.30;99.90;;;;;;4910488;28;20055;-79
2023/10/27 00:07:59;;;;;;;57.75;25.90;;;11.10;99.90;;;;;;4916345;28;20058;-79
2023/10/27 00:10:25;;;;;;;60.95;27.15;;;9.30;99.90;;;;;;4922686;28;20778;-79
2023/10/27 00:12:51;;;;;;;63.00;27.48;;;9.30;99.90;;;;;;4925482;29;20050;-79
2023/10/27 00:15:17;;;;;;;63.25;27.63;;;9.30;99.90;;;;;;4926937;28;20188;-79
2023/10/27 00:17:44;;;;;;;74.88;27.90;;;9.30;99.90;;;;;;4926436;29;20508;-79
2023/10/27 00:20:10;;;;;;;63.00;26.42;;;9.70;99.90;;;;;;4923992;29;20130;-78
2023/10/27 00:22:36;;;;;;;66.13;27.65;;;9.20;99.90;;;;;;4925355;29;20149;-76
2023/10/27 00:25:02;;;;;;;70.40;29.00;;;9.20;99.90;;;;;;4924193;29;20748;-76
2023/10/27 00:27:28;;;;;;;66.30;28.30;;;9.20;99.90;;;;;;4924159;29;20398;-78
2023/10/27 00:29:54;;;;;;;77.82;28.90;;;9.20;99.90;;;;;;4935039;29;20043;-75
2023/10/27 00:32:19;;;;;;;68.68;28.80;;;9.20;99.90;;;;;;4944335;28;20043;-79
2023/10/27 00:34:45;;;;;;;75.95;28.45;;;9.20;99.90;;;;;;4955090;28;20054;-76
2023/10/27 00:37:14;;;;;;;72.35;29.35;;;9.20;99.90;;;;;;4925202;29;20066;-80
2023/10/27 00:39:40;;;;;;;76.72;29.85;;;9.20;99.90;;;;;;4922079;29;20086;-79
2023/10/27 00:42:06;;;;;;;69.13;28.27;;;9.40;99.90;;;;;;4926188;29;20070;-78
2023/10/27 00:44:32;;;;;;;64.45;27.40;;;9.20;99.90;;;;;;4926188;29;20077;-78
2023/10/27 00:46:58;;;;;;;61.42;25.58;;;9.20;99.90;;;;;;4937240;28;20043;-81
2023/10/27 00:49:25;;;;;;;55.75;24.58;;;7.30;99.90;;;;;;4922782;29;20150;-79
2023/10/27 00:51:52;;;;;;;65.05;24.52;;;9.20;99.90;;;;;;4924064;28;20196;-80
2023/10/27 00:54:20;;;;;;;57.97;22.58;;;9.20;99.90;;;;;;4909081;29;20082;-76
2023/10/27 00:56:47;;;;;;;58.25;23.25;;;9.20;99.90;;;;;;4936256;29;20063;-78
2023/10/27 00:59:14;;;;;;;52.40;21.95;;;9.20;99.90;;;;;;4923287;29;20519;-79
2023/10/27 01:01:49;;;;;;;47.05;21.73;;;9.20;99.90;;;;;;4904923;28;20826;-79
2023/10/27 01:04:15;;;;;;;62.63;22.88;;;9.20;99.90;;;;;;4924068;28;20051;-76
2023/10/27 01:06:44;;;;;;;65.18;23.90;;;9.20;99.90;;;;;;4939422;28;20607;-76
2023/10/27 01:09:10;;;;;;;58.28;23.27;;;9.20;99.90;;;;;;4922676;29;20366;-79
2023/10/27 01:11:36;;;;;;;50.33;22.30;;;9.20;99.90;;;;;;4924522;29;20489;-80
2023/10/27 01:14:01;;;;;;;62.33;24.40;;;9.20;99.90;;;;;;4921698;29;20051;-77
2023/10/27 01:16:27;;;;;;;66.78;23.90;;;9.20;99.90;;;;;;4923555;29;20042;-76
2023/10/27 01:18:53;;;;;;;52.60;21.55;;;9.20;99.90;;;;;;4929478;28;20132;-80
2023/10/27 01:21:26;;;;;;;50.92;22.00;;;9.20;99.90;;;;;;4907565;28;20050;-78
2023/10/27 01:23:52;;;;;;;56.40;24.00;;;12.10;99.90;;;;;;4923779;28;20057;-80
2023/10/27 01:26:18;;;;;;;52.97;22.00;;;9.20;99.90;;;;;;4926668;28;20058;-75
2023/10/27 01:28:46;;;;;;;64.68;21.90;;;9.20;99.90;;;;;;4923875;28;20077;-80
2023/10/27 01:31:11;;;;;;;47.42;20.85;;;9.20;99.90;;;;;;4947236;28;20058;-76
2023/10/27 01:33:38;;;;;;;44.70;21.02;;;9.20;99.90;;;;;;4928652;28;20047;-76
2023/10/27 01:36:05;;;;;;;52.78;21.50;;;9.20;99.90;;;;;;4953966;28;20054;-78
2023/10/27 01:38:30;;;;;;;52.28;22.02;;;9.20;99.90;;;;;;4931764;29;20050;-77
2023/10/27 01:40:59;;;;;;;51.13;20.50;;;9.20;99.90;;;;;;4926561;28;20709;-78
2023/10/27 01:43:26;;;;;;;48.83;20.67;;;9.10;99.90;;;;;;4926850;29;20110;-79
2023/10/27 01:45:51;;;;;;;57.50;22.77;;;9.20;99.90;;;;;;4924650;29;20051;-78
2023/10/27 01:48:17;;;;;;;53.33;22.63;;;9.10;99.90;;;;;;4929869;28;20105;-77
2023/10/27 01:51:00;;;;;;;66.20;21.38;;;9.10;99.90;;;;;;4935704;28;20668;-76
2023/10/27 01:53:26;;;;;;;53.90;21.08;;;9.10;99.90;;;;;;4923584;29;20468;-78
2023/10/27 01:55:52;;;;;;;57.35;21.77;;;9.50;99.90;;;;;;4930094;29;20083;-77
2023/10/27 01:58:17;;;;;;;12.85;5.05;;;9.00;99.90;;;;;;4925130;29;20986;-76
2023/10/27 02:00:43;;;;;;;68.18;22.90;;;8.90;99.90;;;;;;4907909;28;20401;-76
2023/10/27 02:03:09;;;;;;;58.95;21.05;;;9.00;99.90;;;;;;4925108;28;20059;-77
2023/10/27 02:05:40;;;;;;;75.43;22.13;;;8.90;99.90;;;;;;4927976;28;20043;-77
2023/10/27 02:08:05;;;;;;;60.10;21.65;;;10.50;99.90;;;;;;4933040;28;20065;-77
2023/10/27 02:10:31;;;;;;;53.05;21.40;;;9.00;99.90;;;;;;4929884;29;20039;-78
2023/10/27 02:12:57;;;;;;;54.15;21.20;;;9.00;99.90;;;;;;4927445;29;20102;-79
2023/10/27 02:15:23;;;;;;;58.88;21.50;;;9.00;99.90;;;;;;4922529;29;20094;-77
2023/10/27 02:17:49;;;;;;;55.42;21.45;;;9.00;99.90;;;;;;4910537;29;20055;-78
2023/10/27 02:20:17;;;;;;;62.85;20.17;;;9.00;99.90;;;;;;4924844;29;20094;-77
2023/10/27 02:22:43;;;;;;;63.22;21.88;;;9.00;99.90;;;;;;4938662;29;20063;-79
2023/10/27 02:25:09;;;;;;;61.15;21.02;;;9.20;99.90;;;;;;4896128;28;20062;-79
2023/10/27 02:27:38;;;;;;;61.15;21.38;;;9.00;99.90;;;;;;4926854;29;20066;-80
2023/10/27 02:30:06;;;;;;;57.13;20.83;;;8.90;99.90;;;;;;4927866;29;20074;-80
2023/10/27 02:32:31;;;;;;;56.03;20.13;;;9.00;99.90;;;;;;4926879;29;20603;-79
2023/10/27 02:34:57;;;;;;;56.53;19.42;;;8.90;99.90;;;;;;4927812;29;20057;-79
2023/10/27 02:37:23;;;;;;;56.17;20.13;;;9.60;99.90;;;;;;4942254;28;20065;-78
2023/10/27 02:39:49;;;;;;;58.17;21.40;;;9.20;99.90;;;;;;4929980;28;20059;-79
2023/10/27 02:42:15;;;;;;;53.30;20.30;;;9.00;99.90;;;;;;4926353;29;20117;-76
2023/10/27 02:44:41;;;;;;;49.90;19.58;;;9.00;99.90;;;;;;4942314;28;20050;-79
2023/10/27 02:47:07;;;;;;;52.17;20.98;;;9.60;99.90;;;;;;4943387;28;20059;-77
2023/10/27 02:49:33;;;;;;;48.92;19.27;;;9.00;99.90;;;;;;4927840;29;20050;-78
2023/10/27 02:52:01;;;;;;;56.67;20.50;;;9.20;99.90;;;;;;4924243;29;20745;-79
2023/10/27 02:54:26;;;;;;;51.35;20.35;;;9.00;99.90;;;;;;4938098;29;20183;-77
2023/10/27 02:56:52;;;;;;;52.35;21.52;;;9.10;99.90;;;;;;4931945;28;20146;-79
2023/10/27 02:59:18;;;;;;;63.92;21.42;;;9.00;99.90;;;;;;4925331;29;20434;-77
2023/10/27 03:01:45;;;;;;;56.25;21.50;;;9.40;99.90;;;;;;4947828;28;20065;-78
2023/10/27 03:04:10;;;;;;;68.55;22.13;;;9.00;99.90;;;;;;4955310;28;20046;-77
2023/10/27 03:06:36;;;;;;;59.15;21.55;;;9.00;99.90;;;;;;4939867;28;20058;-79
2023/10/27 03:09:05;;;;;;;65.53;22.55;;;9.30;99.90;;;;;;4955836;28;20137;-79
2023/10/27 03:11:31;;;;;;;62.13;22.60;;;9.00;99.90;;;;;;4940232;28;20521;-75
2023/10/27 03:13:56;;;;;;;93.88;25.80;;;8.90;99.90;;;;;;4955602;28;20055;-78
2023/10/27 03:16:23;;;;;;;70.10;24.00;;;9.00;99.90;;;;;;4956960;28;20177;-76
2023/10/27 03:18:50;;;;;;;71.13;25.30;;;9.00;99.90;;;;;;4941184;28;20851;-77
2023/10/27 03:21:16;;;;;;;73.18;24.95;;;9.00;99.90;;;;;;4941453;28;20062;-78
2023/10/27 03:23:42;;;;;;;65.90;23.33;;;9.40;99.90;;;;;;4958195;28;20054;-78
2023/10/27 03:26:08;;;;;;;73.97;24.48;;;9.60;99.90;;;;;;4957628;28;20051;-77
2023/10/27 03:28:34;;;;;;;74.70;25.17;;;9.50;99.90;;;;;;4942025;28;20499;-75
2023/10/27 03:31:00;;;;;;;82.75;24.48;;;9.10;99.90;;;;;;4957678;28;20046;-79
2023/10/27 03:33:26;;;;;;;77.20;25.25;;;8.90;99.90;;;;;;4941643;28;20177;-78
2023/10/27 03:35:52;;;;;;;84.03;25.92;;;8.90;99.90;;;;;;4956377;28;20385;-80
2023/10/27 03:38:17;;;;;;;76.90;24.67;;;8.90;99.90;;;;;;4941806;28;20922;-80
2023/10/27 03:40:44;;;;;;;75.47;24.98;;;9.30;99.90;;;;;;4941568;28;20604;-76
2023/10/27 03:43:11;;;;;;;74.05;23.05;;;8.90;99.90;;;;;;4973486;28;20069;-79
2023/10/27 03:45:37;;;;;;;69.95;22.80;;;9.10;99.90;;;;;;4973430;28;20511;-76
2023/10/27 03:48:03;;;;;;;66.93;22.23;;;8.90;99.90;;;;;;4941394;28;20085;-79
2023/10/27 03:50:29;;;;;;;63.75;23.17;;;8.90;99.90;;;;;;4924569;28;20622;-78
2023/10/27 03:52:55;;;;;;;71.10;23.25;;;8.80;99.90;;;;;;4923589;28;20043;-79
2023/10/27 03:55:21;;;;;;;69.47;23.00;;;8.80;99.90;;;;;;4924085;28;20046;-80
2023/10/27 03:57:47;;;;;;;63.42;21.73;;;8.80;99.90;;;;;;4940362;28;20150;-80
2023/10/27 04:00:13;;;;;;;65.88;22.35;;;8.80;99.90;;;;;;4939585;28;20524;-77
2023/10/27 04:02:40;;;;;;;69.60;23.80;;;8.80;99.90;;;;;;4923331;28;20082;-77
2023/10/27 04:05:06;;;;;;;63.17;22.17;;;8.90;99.90;;;;;;4938037;28;20078;-78
2023/10/27 04:07:33;;;;;;;69.32;22.17;;;8.90;99.90;;;;;;4925135;28;20070;-77
2023/10/27 04:09:58;;;;;;;54.53;22.02;;;9.70;99.90;;;;;;4941426;28;20590;-79
2023/10/27 04:12:24;;;;;;;58.45;20.63;;;8.90;99.90;;;;;;4942330;28;20053;-79
2023/10/27 04:14:50;;;;;;;59.58;22.02;;;8.90;99.90;;;;;;4942738;28;20125;-80
2023/10/27 04:17:16;;;;;;;57.85;21.65;;;8.90;99.90;;;;;;4945216;28;20137;-75
2023/10/27 04:19:47;;;;;;;63.25;21.50;;;8.90;99.90;;;;;;4960170;28;20065;-80
2023/10/27 04:22:14;;;;;;;52.47;21.98;;;9.30;99.90;;;;;;4926174;28;20171;-81
2023/10/27 04:24:40;;;;;;;57.88;21.25;;;8.90;99.90;;;;;;4926665;28;20046;-78
2023/10/27 04:27:06;;;;;;;46.90;20.23;;;9.20;99.90;;;;;;4926125;28;20062;-77
2023/10/27 04:29:32;;;;;;;55.15;21.25;;;8.90;99.90;;;;;;4957691;28;20042;-79
2023/10/27 04:31:58;;;;;;;51.28;20.23;;;9.00;99.90;;;;;;4924904;28;20053;-78
2023/10/27 04:34:24;;;;;;;46.65;19.35;;;9.70;99.90;;;;;;4940517;28;20046;-79
2023/10/27 04:36:50;;;;;;;41.78;19.65;;;9.00;99.90;;;;;;4924046;28;20051;-80
2023/10/27 04:39:20;;;;;;;46.40;18.90;;;9.00;99.90;;;;;;4940764;28;20480;-77
2023/10/27 04:41:46;;;;;;;46.40;19.52;;;9.70;99.90;;;;;;4940907;28;20053;-81
2023/10/27 04:44:12;;;;;;;43.67;18.77;;;9.00;99.90;;;;;;4956629;28;20051;-78
2023/10/27 04:46:38;;;;;;;42.95;18.02;;;9.20;99.90;;;;;;4939438;28;20177;-79
2023/10/27 04:49:04;;;;;;;44.22;19.05;;;9.00;99.90;;;;;;4938075;28;20216;-77
2023/10/27 04:51:29;;;;;;;35.38;16.17;;;9.00;99.90;;;;;;4938029;28;20054;-80
2023/10/27 04:53:56;;;;;;;42.92;18.05;;;9.00;99.90;;;;;;4937681;28;20050;-78
2023/10/27 04:56:22;;;;;;;35.17;16.55;;;9.00;99.90;;;;;;4921637;28;20051;-80
2023/10/27 04:58:48;;;;;;;37.92;17.13;;;10.40;99.90;;;;;;4970328;28;20054;-78
2023/10/27 05:01:14;;;;;;;41.10;18.15;;;9.10;99.90;;;;;;4941800;28;20730;-77
2023/10/27 05:03:39;;;;;;;40.95;18.05;;;9.00;99.90;;;;;;4944769;28;20047;-77
2023/10/27 05:06:09;;;;;;;42.47;19.33;;;10.10;99.90;;;;;;4944605;28;20112;-78
2023/10/27 05:08:35;;;;;;;33.92;17.77;;;9.00;99.90;;;;;;4948077;28;20112;-78
2023/10/27 05:11:01;;;;;;;35.05;17.13;;;9.00;99.90;;;;;;4979150;28;20054;-78
2023/10/27 05:13:27;;;;;;;38.47;18.33;;;9.00;99.90;;;;;;4946005;28;20055;-78
2023/10/27 05:15:54;;;;;;;31.40;16.17;;;8.90;99.90;;;;;;4941634;28;20519;-79
2023/10/27 05:18:20;;;;;;;34.40;16.05;;;9.00;99.90;;;;;;4941438;28;20161;-78
2023/10/27 05:20:46;;;;;;;35.20;17.05;;;9.00;99.90;;;;;;4947957;28;20050;-78
2023/10/27 05:23:11;;;;;;;30.52;15.63;;;9.00;99.90;;;;;;4979921;28;20055;-76
2023/10/27 05:25:37;;;;;;;33.45;16.38;;;9.00;99.90;;;;;;4956404;28;20309;-78
2023/10/27 05:28:03;;;;;;;34.85;16.13;;;9.00;99.90;;;;;;4951141;28;20057;-80
2023/10/27 05:30:34;;;;;;;62.63;18.73;;;9.00;99.90;;;;;;4951244;28;20077;-78
2023/10/27 05:33:00;;;;;;;38.15;17.33;;;9.00;99.90;;;;;;4961033;28;20149;-77
2023/10/27 05:35:26;;;;;;;48.80;19.58;;;9.00;99.90;;;;;;4941840;28;20495;-80
2023/10/27 05:37:52;;;;;;;40.33;18.83;;;9.00;99.90;;;;;;4943827;28;20051;-79
2023/10/27 05:40:18;;;;;;;40.60;17.30;;;9.50;99.90;;;;;;4967319;28;20523;-75
2023/10/27 05:42:44;;;;;;;40.58;16.85;;;9.00;99.90;;;;;;4947686;28;20061;-79
2023/10/27 05:45:13;;;;;;;38.90;17.48;;;9.00;99.90;;;;;;4949536;28;20084;-76
2023/10/27 05:47:40;;;;;;;34.70;16.98;;;9.00;99.90;;;;;;4962766;28;20057;-78
2023/10/27 05:50:07;;;;;;;45.42;17.63;;;9.00;99.90;;;;;;4961460;28;20054;-79
2023/10/27 05:52:32;;;;;;;42.50;18.48;;;9.00;99.90;;;;;;4964360;28;20145;-77
2023/10/27 05:54:58;;;;;;;38.13;19.05;;;9.90;99.90;;;;;;4952409;28;20587;-76
2023/10/27 05:57:24;;;;;;;38.03;16.95;;;9.00;99.90;;;;;;4984531;28;20081;-79
2023/10/27 05:59:52;;;;;;;41.13;19.20;;;9.00;99.90;;;;;;4949268;28;20531;-78
2023/10/27 06:02:18;;;;;;;42.88;19.42;;;9.00;99.90;;;;;;4930778;28;20047;-77
2023/10/27 06:04:44;;;;;;;41.60;19.98;;;9.00;99.90;;;;;;4926363;29;20061;-77
2023/10/27 06:07:15;;;;;;;38.55;17.88;;;9.00;99.90;;;;;;4947489;28;20813;-80
2023/10/27 06:09:42;;;;;;;45.58;17.95;;;9.00;99.90;;;;;;4930683;29;20543;-78
2023/10/27 06:12:11;;;;;;;48.05;19.30;;;9.00;99.90;;;;;;4949546;28;20050;-79
2023/10/27 06:14:41;;;;;;;41.70;18.58;;;9.10;99.90;;;;;;4911557;28;20126;-79
2023/10/27 06:17:08;;;;;;;38.92;17.75;;;9.00;99.90;;;;;;4934773;28;20066;-78
2023/10/27 06:19:34;;;;;;;37.80;17.73;;;9.00;99.90;;;;;;4923366;29;20059;-78
2023/10/27 06:22:06;;;;;;;44.47;19.48;;;9.00;99.90;;;;;;4914353;28;20516;-78
2023/10/27 06:24:31;;;;;;;43.60;18.05;;;7.50;99.90;;;;;;4943554;28;20039;-79
2023/10/27 06:26:58;;;;;;;43.40;17.48;;;9.00;99.90;;;;;;4966701;28;20050;-79
2023/10/27 06:29:24;;;;;;;42.13;17.95;;;9.70;99.90;;;;;;4912493;28;20628;-76
2023/10/27 06:31:49;;;;;;;35.08;17.95;;;9.10;99.90;;;;;;4909312;28;20067;-80
2023/10/27 06:34:15;;;;;;;44.58;19.65;;;9.00;99.90;;;;;;4925674;28;20877;-80
2023/10/27 06:36:41;;;;;;;43.40;19.17;;;9.00;99.90;;;;;;4926373;29;20057;-78
2023/10/27 06:39:07;;;;;;;40.97;19.13;;;9.20;99.90;;;;;;4959264;28;20082;-79
2023/10/27 06:41:37;;;;;;;42.05;19.73;;;9.00;99.90;;;;;;4913001;29;20086;-79
2023/10/27 06:44:06;;;;;;;39.17;19.17;;;9.00;99.90;;;;;;4926297;29;20049;-78
2023/10/27 06:46:55;;;;;;;39.70;19.15;;;9.30;99.90;;;;;;4926843;29;20047;-78
2023/10/27 06:49:25;;;;;;;41.92;18.23;;;9.00;99.90;;;;;;4915127;28;20047;-79
2023/10/27 06:51:51;;;;;;;36.05;18.48;;;9.00;99.90;;;;;;4934060;28;20133;-79
2023/10/27 06:54:16;;;;;;;35.65;17.90;;;9.10;99.90;;;;;;4933521;28;20940;-77
2023/10/27 06:56:50;;;;;;;38.00;18.77;;;9.00;99.90;;;;;;4932487;29;20043;-79
2023/10/27 06:59:19;;;;;;;35.40;17.55;;;9.00;99.90;;;;;;4923174;29;20466;-77
2023/10/27 07:01:45;;;;;;;38.03;18.30;;;9.00;99.90;;;;;;4942782;28;20055;-81
2023/10/27 07:04:11;;;;;;;39.20;18.55;;;9.00;99.90;;;;;;4939803;29;20218;-79
2023/10/27 07:06:36;;;;;;;38.58;18.52;;;9.00;99.90;;;;;;4919785;28;20065;-77
2023/10/27 07:09:03;;;;;;;35.63;17.90;;;9.00;99.90;;;;;;4925544;29;20647;-79
2023/10/27 07:11:46;;;;;;;40.72;20.88;;;11.10;99.90;;;;;;4921950;29;20055;-80
2023/10/27 07:14:14;;;;;;;46.30;19.58;;;9.00;99.90;;;;;;4933693;28;20059;-76
2023/10/27 07:16:41;;;;;;;42.38;20.10;;;9.10;99.90;;;;;;4920972;29;20136;-77
2023/10/27 07:19:07;;;;;;;43.95;21.17;;;9.60;99.90;;;;;;4923847;28;20051;-77
2023/10/27 07:21:34;;;;;;;43.50;20.15;;;9.10;99.90;;;;;;4932150;28;20462;-80
2023/10/27 07:24:00;;;;;;;42.72;21.05;;;9.10;99.90;;;;;;4939588;28;20128;-78
2023/10/27 07:26:26;;;;;;;35.75;19.27;;;9.10;99.90;;;;;;4910572;28;20428;-79
2023/10/27 07:28:52;;;;;;;42.70;21.42;;;12.00;99.90;;;;;;4925482;28;20049;-80
2023/10/27 07:31:20;;;;;;;37.67;20.50;;;9.10;99.90;;;;;;4909527;28;20047;-77
2023/10/27 07:33:46;;;;;;;36.63;19.70;;;9.20;99.90;;;;;;4918801;28;20086;-79
2023/10/27 07:36:17;;;;;;;44.53;20.40;;;9.20;99.90;;;;;;4914000;28;20050;-80
2023/10/27 07:38:45;;;;;;;37.80;19.40;;;9.20;99.90;;;;;;4962332;28;20062;-76
2023/10/27 07:41:11;;;;;;;39.28;21.02;;;9.40;99.90;;;;;;4910286;28;20201;-80
2023/10/27 07:43:37;;;;;;;38.92;19.45;;;9.20;99.90;;;;;;4908777;28;20059;-80
2023/10/27 07:46:03;;;;;;;41.47;21.65;;;9.30;99.90;;;;;;4925699;28;20547;-79
2023/10/27 07:48:35;;;;;;;34.63;19.45;;;9.30;99.90;;;;;;4922425;29;20149;-79
2023/10/27 07:51:01;;;;;;;35.65;18.92;;;9.30;99.90;;;;;;4962834;28;20050;-81
2023/10/27 07:53:36;;;;;;;35.38;19.73;;;9.40;99.90;;;;;;4913511;29;20336;-79
2023/10/27 07:56:04;;;;;;;34.25;18.27;;;9.30;99.90;;;;;;4922707;29;20067;-78
2023/10/27 07:58:30;;;;;;;32.78;18.13;;;9.30;99.90;;;;;;4940630;28;20133;-79
2023/10/27 08:00:58;;;;;;;35.63;19.48;;;9.70;99.90;;;;;;4909846;29;20169;-79
2023/10/27 08:03:24;;;;;;;36.15;20.08;;;9.40;99.90;;;;;;4960564;28;20129;-79
2023/10/27 08:05:51;;;;;;;36.17;19.75;;;9.40;99.90;;;;;;4949605;28;20515;-79
2023/10/27 08:08:17;;;;;;;38.63;20.42;;;9.40;99.90;;;;;;4912811;29;20202;-78
2023/10/27 08:10:46;;;;;;;37.45;20.27;;;9.40;99.90;;;;;;4921472;28;20066;-78
2023/10/27 08:13:16;;;;;;;41.00;19.40;;;9.40;99.90;;;;;;4925302;28;20743;-77
2023/10/27 08:15:43;;;;;;;32.13;19.08;;;9.40;99.90;;;;;;4960180;28;20066;-78
2023/10/27 08:18:10;;;;;;;33.60;19.65;;;9.50;99.90;;;;;;4907347;28;20051;-80
2023/10/27 08:20:36;;;;;;;35.28;19.30;;;9.50;99.90;;;;;;4926058;28;20134;-80
2023/10/27 08:23:02;;;;;;;29.90;17.35;;;9.50;99.90;;;;;;4909412;28;20069;-76
2023/10/27 08:25:31;;;;;;;33.95;19.58;;;9.50;99.90;;;;;;4935938;28;20683;-76
2023/10/27 08:27:57;;;;;;;29.10;18.02;;;9.50;99.90;;;;;;4908378;28;20051;-78
2023/10/27 08:30:22;;;;;;;30.58;18.30;;;9.50;99.90;;;;;;4920746;28;20118;-78
2023/10/27 08:32:52;;;;;;;27.85;18.05;;;10.90;99.90;;;;;;4935928;29;20050;-79
2023/10/27 08:35:18;;;;;;;26.92;16.52;;;9.60;99.90;;;;;;4900111;29;20061;-77
2023/10/27 08:37:44;;;;;;;28.63;17.98;;;9.60;99.90;;;;;;4918447;28;20055;-80
2023/10/27 08:40:11;;;;;;;28.33;17.05;;;9.60;99.90;;;;;;4868645;28;20059;-76
2023/10/27 08:42:42;;;;;;;31.48;18.90;;;9.60;99.90;;;;;;4890512;29;20438;-79
2023/10/27 08:45:08;;;;;;;33.90;19.08;;;7.80;99.90;;;;;;4914650;28;20147;-79
2023/10/27 08:47:36;;;;;;;30.48;18.45;;;9.70;99.90;;;;;;4894808;28;20047;-77
2023/10/27 08:50:06;;;;;;;30.25;18.70;;;9.80;99.90;;;;;;4923067;28;20134;-76
2023/10/27 08:52:33;;;;;;;31.42;17.83;;;9.80;99.90;;;;;;4896292;28;20058;-79
2023/10/27 08:55:07;;;;;;;27.30;18.10;;;9.80;99.90;;;;;;4895006;28;20835;-77
2023/10/27 08:57:33;;;;;;;27.90;18.27;;;9.80;99.90;;;;;;4911901;28;20964;-77
2023/10/27 08:59:59;;;;;;;29.88;19.45;;;9.90;99.90;;;;;;4885415;28;20154;-78
2023/10/27 09:02:36;;;;;;;24.85;17.33;;;9.90;99.90;;;;;;4909856;28;20059;-77
2023/10/27 09:05:04;;;;;;;25.98;17.60;;;9.90;99.90;;;;;;4908719;28;20129;-76
2023/10/27 09:07:34;;;;;;;26.08;16.98;;;9.90;99.90;;;;;;4914310;28;21719;-77
2023/10/27 09:10:03;;;;;;;27.35;17.88;;;9.90;99.90;;;;;;4895223;28;20109;-78
2023/10/27 09:12:37;;;;;;;29.00;18.02;;;9.90;99.90;;;;;;4901356;28;20051;-79
2023/10/27 09:15:07;;;;;;;28.27;18.58;;;9.90;99.90;;;;;;4896523;28;20070;-75
2023/10/27 09:17:55;;;;;;;26.65;17.45;;;10.00;99.90;;;;;;4884204;28;20145;-78
2023/10/27 09:20:28;;;;;;;25.52;17.05;;;9.40;99.90;;;;;;4884546;28;20051;-77
2023/10/27 09:23:04;;;;;;;25.65;16.55;;;10.00;99.90;;;;;;4899354;28;20066;-78
2023/10/27 09:25:34;;;;;;;28.25;18.02;;;10.00;99.90;;;;;;4900323;28;20067;-78
2023/10/27 09:28:05;;;;;;;29.90;18.77;;;10.00;99.90;;;;;;4911963;28;20062;-78
2023/10/27 09:30:33;;;;;;;26.23;17.85;;;10.00;99.90;;;;;;4910292;28;20153;-77
2023/10/27 09:33:27;;;;;;;23.65;17.00;;;10.10;99.90;;;;;;4920559;28;20103;-81
2023/10/27 09:35:54;;;;;;;23.77;16.17;;;10.00;99.90;;;;;;4915915;28;20197;-78
2023/10/27 09:38:22;;;;;;;24.10;17.30;;;10.00;99.90;;;;;;4897845;28;20129;-77
2023/10/27 09:40:53;;;;;;;28.17;16.83;;;10.10;99.90;;;;;;4894371;28;20067;-76
2023/10/27 09:43:23;;;;;;;23.70;16.17;;;10.10;99.90;;;;;;4923365;28;20055;-77
2023/10/27 09:45:58;;;;;;;25.52;17.23;;;10.10;99.90;;;;;;4898403;28;20154;-76
2023/10/27 09:48:29;;;;;;;25.52;17.10;;;10.20;99.90;;;;;;4897741;28;20067;-78
2023/10/27 09:51:11;;;;;;;20.83;15.87;;;10.10;99.90;;;;;;4919192;28;20055;-77
2023/10/27 09:53:39;;;;;;;;;;;10.20;99.90;;;;;;4902907;28;20055;-77
2023/10/27 09:56:05;;;;;;;23.25;16.33;;;10.20;99.90;;;;;;4919833;28;19926;-77
2023/10/27 09:58:33;;;;;;;25.95;17.08;;;10.20;99.90;;;;;;4894325;28;20047;-77
2023/10/27 10:01:02;;;;;;;27.42;16.70;;;10.20;99.90;;;;;;4889384;28;20133;-77
2023/10/27 10:03:28;;;;;;;24.60;17.15;;;10.20;99.90;;;;;;4879588;28;20061;-77
2023/10/27 10:06:15;;;;;;;26.45;17.30;;;12.50;99.90;;;;;;4914390;28;20182;-77
2023/10/27 10:09:11;;;;;;;27.13;16.70;;;10.20;99.90;;;;;;4895630;28;21146;-77
2023/10/27 10:11:54;;;;;;;25.90;17.27;;;10.40;99.90;;;;;;4891744;28;20055;-78
2023/10/27 10:14:42;;;;;;;29.88;18.27;;;8.60;99.90;;;;;;4920886;28;20444;-76
2023/10/27 10:17:11;;;;;;;27.25;16.58;;;10.20;99.90;;;;;;4908133;28;20157;-77
2023/10/27 10:20:07;;;;;;;29.40;18.52;;;10.20;99.90;;;;;;4903571;28;20106;-77
2023/10/27 10:22:41;;;;;;;30.83;17.88;;;10.20;99.90;;;;;;4881557;28;20512;-78
2023/10/27 10:25:19;;;;;;;28.58;17.92;;;9.30;99.90;;;;;;4892121;28;20051;-76
2023/10/27 10:28:10;;;;;;;28.15;17.60;;;10.10;99.90;;;;;;4895272;28;20066;-78
2023/10/27 10:30:41;;;;;;;29.35;17.23;;;10.10;99.90;;;;;;4912321;28;20046;-75
2023/10/27 10:33:16;;;;;;;27.48;17.08;;;10.10;99.90;;;;;;4898208;28;20062;-77
2023/10/27 10:35:46;;;;;;;28.95;17.02;;;9.60;99.90;;;;;;4896659;28;20484;-78
2023/10/27 10:38:21;;;;;;;31.55;18.15;;;10.10;99.90;;;;;;4896282;28;20055;-78
2023/10/27 10:40:54;;;;;;;35.10;18.90;;;10.10;99.90;;;;;;4898231;28;20399;-78
2023/10/27 10:43:28;;;;;;;32.78;18.85;;;10.10;99.90;;;;;;4907517;28;20150;-78
2023/10/27 10:46:00;;;;;;;35.53;20.05;;;10.10;99.90;;;;;;4895761;28;20059;-79
2023/10/27 10:48:30;;;;;;;39.13;20.02;;;10.10;99.90;;;;;;4903330;28;20764;-77
2023/10/27 10:54:14;;;;;;;35.58;19.52;;;10.10;99.90;;;;;;4866815;28;20051;-77
2023/10/27 10:56:40;;;;;;;36.60;20.65;;;10.10;99.90;;;;;;4927801;28;20146;-79
2023/10/27 10:59:05;;;;;;;40.85;21.73;;;7.70;99.90;;;;;;4898186;28;20149;-79
2023/10/27 11:01:31;;;;;;;42.60;19.98;;;10.10;99.90;;;;;;4880224;28;20055;-79
2023/10/27 11:03:58;;;;;;;44.17;21.15;;;10.10;99.90;;;;;;4897950;28;20934;-80
2023/10/27 11:06:28;;;;;;;46.63;21.35;;;10.10;99.90;;;;;;4898506;28;20340;-77
2023/10/27 11:08:57;;;;;;;41.47;20.92;;;10.10;99.90;;;;;;4890512;28;20105;-79
2023/10/27 11:11:28;;;;;;;44.53;20.88;;;10.20;99.90;;;;;;4900353;28;20151;-81
2023/10/27 11:13:57;;;;;;;42.83;21.50;;;10.30;99.90;;;;;;4897322;28;20051;-81
2023/10/27 11:16:24;;;;;;;48.22;23.17;;;10.20;99.90;;;;;;4913811;28;20611;-80
2023/10/27 11:18:53;;;;;;;46.20;23.38;;;10.20;99.90;;;;;;4883163;28;20205;-80
2023/10/27 11:21:22;;;;;;;48.65;22.33;;;10.20;99.90;;;;;;4885103;28;20120;-80
2023/10/27 11:23:51;;;;;;;44.33;23.52;;;10.30;99.90;;;;;;4900368;28;20055;-80
2023/10/27 11:26:20;;;;;;;45.72;22.75;;;10.30;99.90;;;;;;4896773;28;20066;-82
2023/10/27 11:28:46;;;;;;;43.17;22.80;;;10.30;99.90;;;;;;4899159;28;20148;-84
2023/10/27 11:31:22;;;;;;;45.38;21.27;;;10.30;99.90;;;;;;4879203;28;20102;-82
2023/10/27 11:33:57;;;;;;;47.85;22.50;;;10.30;99.90;;;;;;4911723;28;20055;-84
2023/10/27 11:36:24;;;;;;;46.63;22.58;;;10.30;99.90;;;;;;4906101;28;20067;-81
2023/10/27 11:38:50;;;;;;;41.65;20.95;;;10.30;99.90;;;;;;4914882;28;20079;-82
2023/10/27 11:41:16;;;;;;;49.10;23.13;;;10.40;99.90;;;;;;4905948;28;20052;-81
2023/10/27 11:43:44;;;;;;;60.78;25.58;;;10.40;99.90;;;;;;4866704;28;20244;-80
2023/10/27 11:46:15;;;;;;;50.72;24.98;;;10.40;99.90;;;;;;4898565;28;20062;-83
2023/10/27 11:48:45;;;;;;;51.92;22.45;;;10.30;99.90;;;;;;4909183;28;20073;-85
2023/10/27 11:51:11;;;;;;;51.42;21.95;;;10.40;99.90;;;;;;4899136;28;20050;-83
2023/10/27 11:53:42;;;;;;;49.58;22.92;;;10.40;99.90;;;;;;4883454;28;20061;-81
2023/10/27 11:56:08;;;;;;;54.97;24.05;;;10.40;99.90;;;;;;4899966;28;20058;-85
2023/10/27 11:58:39;;;;;;;58.58;24.27;;;10.50;99.90;;;;;;4892939;28;20059;-81
2023/10/27 12:01:05;;;;;;;54.97;24.70;;;10.40;99.90;;;;;;4889838;28;20098;-84
2023/10/27 12:03:31;;;;;;;56.70;24.77;;;10.40;99.90;;;;;;4892976;28;20066;-81
2023/10/27 12:05:57;;;;;;;56.65;23.88;;;10.40;99.90;;;;;;4911883;28;20055;-80
2023/10/27 12:08:24;;;;;;;58.97;24.73;;;10.40;99.90;;;;;;4892884;28;20051;-80
2023/10/27 12:10:56;;;;;;;57.25;25.35;;;10.40;99.90;;;;;;4916792;28;20071;-85
2023/10/27 12:13:24;;;;;;;49.70;23.48;;;10.40;99.90;;;;;;4898453;28;20910;-80
2023/10/27 12:15:50;;;;;;;55.55;25.35;;;10.40;99.90;;;;;;4911828;28;20145;-85
2023/10/27 12:18:19;;;;;;;56.80;24.30;;;10.60;99.90;;;;;;4896848;28;20885;-81
2023/10/27 12:20:51;;;;;;;70.18;25.88;;;10.30;99.90;;;;;;4923231;28;20057;-81
2023/10/27 12:23:20;;;;;;;72.80;27.00;;;10.40;99.90;;;;;;4898986;28;20061;-81
2023/10/27 12:25:46;;;;;;;77.25;27.23;;;10.30;99.90;;;;;;4900116;28;20181;-80
2023/10/27 12:28:12;;;;;;;63.55;26.10;;;10.40;99.90;;;;;;4885119;28;20066;-83
2023/10/27 12:30:38;;;;;;;75.45;26.88;;;9.70;99.90;;;;;;4891546;28;20470;-80
2023/10/27 12:33:04;;;;;;;70.32;27.80;;;10.40;99.90;;;;;;4907219;28;20043;-85
2023/10/27 12:35:31;;;;;;;68.10;26.23;;;10.40;99.90;;;;;;4896350;28;21258;-83
2023/10/27 12:37:57;;;;;;;89.25;29.27;;;10.80;99.90;;;;;;4907063;28;20062;-83
2023/10/27 12:40:24;;;;;;;80.90;28.55;;;10.50;99.90;;;;;;4883344;28;20054;-79
2023/10/27 12:42:51;;;;;;;82.35;27.92;;;10.50;99.90;;;;;;4894310;28;20058;-83